Time;durP1;ratioP1;P1;durP2;ratioP2;P2;SDS_P1;SDS_P2;PMS_P1;PMS_P2;Temp;Humidity;BMP_temperature;BMP_pressure;BME280_temperature;BME280_humidity;BME280_pressure;Samples;Min_cycle;Max_cycle;Signal;HPM_P1;HPM_P2
2023/08/02 00:02:14;;;;;;;9.57;2.70;;;;;;;14.24;100.00;99996.53;4916089;29;20036;-88
2023/08/02 00:04:41;;;;;;;11.73;2.57;;;;;;;14.26;100.00;100002.38;4916201;29;20040;-88
2023/08/02 00:07:07;;;;;;;7.00;2.05;;;;;;;14.23;100.00;99997.63;4916515;29;20527;-89
2023/08/02 00:09:32;;;;;;;7.18;2.60;;;;;;;14.27;100.00;100005.91;4918257;29;20095;-88
2023/08/02 00:11:58;;;;;;;9.87;2.30;;;;;;;14.25;100.00;100003.50;4934800;29;20468;-87
2023/08/02 00:14:23;;;;;;;8.13;2.37;;;;;;;14.23;100.00;100013.78;4933514;29;20063;-87
2023/08/02 00:16:49;;;;;;;11.77;2.67;;;;;;;14.18;100.00;100009.28;4927739;29;20326;-88
2023/08/02 00:19:15;;;;;;;7.38;2.10;;;;;;;14.15;100.00;100023.34;4931691;29;20143;-88
2023/08/02 00:21:41;;;;;;;5.47;2.20;;;;;;;14.06;100.00;100017.09;4934289;29;20059;-87
2023/08/02 00:24:06;;;;;;;7.25;2.50;;;;;;;14.04;100.00;100005.81;4948181;29;20101;-88
2023/08/02 00:26:32;;;;;;;6.77;2.30;;;;;;;14.05;100.00;100013.63;4935750;29;20031;-88
2023/08/02 00:28:57;;;;;;;7.15;2.30;;;;;;;13.94;100.00;100009.53;4939243;29;20318;-88
2023/08/02 00:31:23;;;;;;;5.80;2.13;;;;;;;13.94;100.00;100012.22;4947716;29;20527;-88
2023/08/02 00:33:48;;;;;;;9.30;2.30;;;;;;;13.95;100.00;100016.50;4930727;29;20028;-87
2023/08/02 00:36:13;;;;;;;10.40;2.30;;;;;;;13.87;100.00;100017.22;4922036;29;20055;-88
2023/08/02 00:38:39;;;;;;;6.67;2.07;;;;;;;13.88;100.00;100010.72;4934745;29;20028;-88
2023/08/02 00:41:05;;;;;;;8.97;2.37;;;;;;;13.88;100.00;100000.75;4930118;29;20023;-88
2023/08/02 00:43:44;;;;;;;5.37;2.10;;;;;;;13.91;100.00;99994.78;4934030;29;20322;-88
2023/08/02 00:46:12;;;;;;;8.23;2.40;;;;;;;14.03;100.00;99991.56;4932370;29;20035;-88
2023/08/02 00:48:38;;;;;;;5.82;2.20;;;;;;;14.07;100.00;99979.06;4925732;29;20449;-88
2023/08/02 00:51:04;;;;;;;8.45;2.92;;;;;;;14.24;100.00;99980.38;4929783;29;20039;-88
2023/08/02 00:53:30;;;;;;;9.25;2.45;;;;;;;14.32;100.00;99971.53;4921089;29;20042;-88
2023/08/02 00:55:56;;;;;;;5.38;2.35;;;;;;;14.34;100.00;99955.88;4933599;29;20110;-88
2023/08/02 00:58:22;;;;;;;5.68;2.40;;;;;;;14.45;100.00;99947.53;4933098;29;20039;-88
2023/08/02 01:00:47;;;;;;;6.70;2.50;;;;;;;14.49;100.00;99948.53;4932084;29;20028;-88
2023/08/02 01:03:13;;;;;;;6.20;2.07;;;;;;;14.44;100.00;99949.47;4933211;29;20087;-88
2023/08/02 01:05:58;;;;;;;5.18;2.22;;;;;;;14.50;100.00;99956.34;4933180;29;20074;-87
2023/08/02 01:08:31;;;;;;;5.55;2.28;;;;;;;14.60;100.00;99963.38;4933469;29;20059;-88
2023/08/02 01:11:03;;;;;;;7.78;2.40;;;;;;;14.64;100.00;99960.88;4932625;29;20365;-88
2023/08/02 01:13:30;;;;;;;7.93;2.40;;;;;;;14.66;100.00;99954.06;4933205;29;20067;-89
2023/08/02 01:15:58;;;;;;;6.73;2.60;;;;;;;14.65;100.00;99951.66;4928653;29;20321;-89
2023/08/02 01:18:24;;;;;;;6.53;2.30;;;;;;;14.67;100.00;99950.25;4919980;29;20309;-88
2023/08/02 01:20:49;;;;;;;7.90;2.40;;;;;;;14.74;100.00;99959.84;4932122;29;20024;-88
2023/08/02 01:23:14;;;;;;;5.20;2.60;;;;;;;14.76;100.00;99963.81;4933988;29;20039;-88
2023/08/02 01:25:45;;;;;;;7.47;2.73;;;;;;;14.85;100.00;99974.66;4932679;29;20032;-88
2023/08/02 01:28:17;;;;;;;8.32;2.47;;;;;;;14.82;100.00;99964.50;4917989;29;20047;-88
2023/08/02 01:30:42;;;;;;;8.93;2.47;;;;;;;14.88;100.00;99955.19;4925341;29;20107;-88
2023/08/02 01:33:08;;;;;;;5.43;2.30;;;;;;;14.82;100.00;99943.72;4914749;29;20449;-88
2023/08/02 01:35:34;;;;;;;8.33;2.43;;;;;;;14.87;100.00;99944.72;4932471;29;20383;-89
2023/08/02 01:38:00;;;;;;;7.70;2.55;;;;;;;14.86;100.00;99941.19;4930178;29;20032;-88
2023/08/02 01:40:25;;;;;;;7.15;2.40;;;;;;;14.91;100.00;99956.44;4925259;29;20488;-88
2023/08/02 01:42:51;;;;;;;8.57;2.40;;;;;;;14.90;100.00;99935.97;4932423;29;20047;-88
2023/08/02 01:45:16;;;;;;;5.80;2.30;;;;;;;14.89;100.00;99937.91;4941858;29;20118;-88
2023/08/02 01:47:41;;;;;;;9.47;2.40;;;;;;;14.92;100.00;99931.88;4914091;29;20400;-88
2023/08/02 01:50:07;;;;;;;8.23;2.77;;;;;;;14.93;100.00;99930.78;4939786;29;20038;-88
2023/08/02 01:52:32;;;;;;;9.57;2.70;;;;;;;14.91;100.00;99922.19;4935751;29;20058;-88
2023/08/02 01:54:57;;;;;;;5.90;2.17;;;;;;;14.93;100.00;99925.38;4932891;29;20024;-88
2023/08/02 01:57:23;;;;;;;9.50;2.53;;;;;;;14.87;100.00;99907.75;4932083;29;20479;-88
2023/08/02 01:59:48;;;;;;;9.10;2.37;;;;;;;14.90;100.00;99915.22;4931629;29;20492;-88
2023/08/02 02:02:13;;;;;;;5.83;2.43;;;;;;;14.88;100.00;99909.31;4933401;29;20059;-88
2023/08/02 02:04:39;;;;;;;7.97;2.73;;;;;;;14.90;100.00;99911.69;4932295;29;20040;-88
2023/08/02 02:07:04;;;;;;;6.60;2.20;;;;;;;14.81;100.00;99890.09;4932655;29;20444;-88
2023/08/02 02:09:30;;;;;;;7.30;2.63;;;;;;;14.81;100.00;99893.59;4929501;29;20028;-88
2023/08/02 02:11:55;;;;;;;9.13;2.73;;;;;;;14.68;100.00;99871.00;4914579;29;20086;-88
2023/08/02 02:14:20;;;;;;;9.00;2.77;;;;;;;14.65;100.00;99863.50;4914949;29;20540;-88
2023/08/02 02:16:45;;;;;;;6.73;2.60;;;;;;;14.67;100.00;99869.38;4931825;29;20035;-88
2023/08/02 02:19:11;;;;;;;7.40;2.75;;;;;;;14.42;100.00;99843.06;4932396;29;20031;-88
2023/08/02 02:21:36;;;;;;;10.60;2.70;;;;;;;14.68;100.00;99870.22;4926104;29;20074;-88
2023/08/02 02:24:02;;;;;;;8.00;2.63;;;;;;;14.69;100.00;99855.63;4932301;29;20031;-88
2023/08/02 02:26:27;;;;;;;8.48;2.75;;;;;;;14.64;100.00;99836.84;4931877;29;20023;-89
2023/08/02 02:28:53;;;;;;;9.57;2.97;;;;;;;14.68;100.00;99833.25;4930486;29;20046;-88
2023/08/02 02:31:18;;;;;;;5.60;2.70;;;;;;;14.58;100.00;99816.50;4930589;29;20036;-88
2023/08/02 02:33:43;;;;;;;7.57;2.60;;;;;;;14.69;100.00;99824.06;4932450;29;20079;-89
2023/08/02 02:36:08;;;;;;;7.47;2.43;;;;;;;14.75;100.00;99815.84;4931667;29;20024;-88
2023/08/02 02:38:34;;;;;;;7.95;2.80;;;;;;;14.77;100.00;99819.81;4930218;29;20092;-88
2023/08/02 02:40:59;;;;;;;7.63;2.87;;;;;;;14.71;100.00;99804.84;4926455;29;20082;-88
2023/08/02 02:43:24;;;;;;;8.57;2.60;;;;;;;14.82;100.00;99816.97;4933022;29;20028;-88
2023/08/02 02:45:50;;;;;;;8.33;2.63;;;;;;;14.83;100.00;99817.75;4931191;29;20038;-89
2023/08/02 02:48:15;;;;;;;7.43;2.70;;;;;;;14.85;100.00;99807.47;4926930;29;20039;-88
2023/08/02 02:50:40;;;;;;;8.10;2.72;;;;;;;14.82;100.00;99806.19;4917823;29;20052;-88
2023/08/02 02:53:06;;;;;;;5.87;2.43;;;;;;;14.81;100.00;99803.78;4926136;29;20476;-88
2023/08/02 02:55:31;;;;;;;7.37;2.50;;;;;;;14.85;100.00;99810.16;4935889;29;20103;-89
2023/08/02 02:57:56;;;;;;;8.77;2.83;;;;;;;14.86;100.00;99814.44;4931519;29;20490;-88
2023/08/02 03:00:22;;;;;;;7.67;3.03;;;;;;;14.86;100.00;99794.78;4927503;29;20264;-88
2023/08/02 03:02:47;;;;;;;6.22;2.50;;;;;;;14.93;100.00;99801.31;4936355;29;20474;-87
2023/08/02 03:05:12;;;;;;;7.17;2.37;;;;;;;14.94;100.00;99802.91;4950404;29;20066;-88
2023/08/02 03:07:38;;;;;;;6.80;2.57;;;;;;;15.00;100.00;99803.56;4935619;29;20036;-87
2023/08/02 03:10:04;;;;;;;6.13;2.60;;;;;;;14.99;100.00;99789.25;4935959;29;20031;-88
2023/08/02 03:12:29;;;;;;;6.55;2.40;;;;;;;14.91;100.00;99754.97;4945589;29;20394;-88
2023/08/02 03:14:55;;;;;;;6.93;2.80;;;;;;;14.92;100.00;99748.47;4935534;29;20035;-88
2023/08/02 03:17:20;;;;;;;7.43;2.50;;;;;;;14.90;100.00;99737.22;4935515;29;20028;-89
2023/08/02 03:19:46;;;;;;;5.03;2.30;;;;;;;14.91;100.00;99738.00;4930984;29;20038;-88
2023/08/02 03:22:11;;;;;;;6.88;2.40;;;;;;;14.89;100.00;99724.03;4933592;29;20099;-88
2023/08/02 03:24:36;;;;;;;8.77;2.50;;;;;;;14.88;100.00;99727.84;4934764;29;20112;-88
2023/08/02 03:27:02;;;;;;;8.87;2.50;;;;;;;14.86;100.00;99714.66;4934900;29;20063;-88
2023/08/02 03:29:28;;;;;;;6.10;2.27;;;;;;;14.92;100.00;99726.09;4932438;29;20303;-88
2023/08/02 03:31:53;;;;;;;8.60;2.70;;;;;;;14.92;100.00;99708.03;4932846;29;20115;-88
2023/08/02 03:34:18;;;;;;;6.63;2.63;;;;;;;14.87;100.00;99705.47;4935588;29;20488;-88
2023/08/02 03:36:44;;;;;;;7.20;2.60;;;;;;;14.90;100.00;99710.22;4930794;29;20062;-87
2023/08/02 03:39:10;;;;;;;5.10;2.83;;;;;;;14.83;100.00;99704.50;4924520;29;20955;-88
2023/08/02 03:41:35;;;;;;;6.32;3.03;;;;;;;14.87;100.00;99705.47;4931688;29;20110;-88
2023/08/02 03:44:01;;;;;;;7.70;3.03;;;;;;;14.85;100.00;99702.28;4935577;29;20106;-88
2023/08/02 03:46:26;;;;;;;7.47;2.87;;;;;;;14.86;100.00;99695.78;4934586;29;20161;-89
2023/08/02 03:48:51;;;;;;;4.90;2.90;;;;;;;14.93;100.00;99700.72;4934288;29;20126;-88
2023/08/02 03:51:17;;;;;;;5.90;2.55;;;;;;;14.87;100.00;99688.50;4934651;29;20388;-88
2023/08/02 03:53:42;;;;;;;5.20;2.60;;;;;;;14.84;100.00;99679.13;4933997;29;20115;-88
2023/08/02 03:56:07;;;;;;;5.80;2.93;;;;;;;14.83;100.00;99672.13;4931107;29;20032;-88
2023/08/02 03:58:33;;;;;;;7.40;3.00;;;;;;;14.81;100.00;99666.25;4929263;29;20033;-88
2023/08/02 04:00:58;;;;;;;5.63;3.08;;;;;;;14.90;100.00;99677.88;4934542;29;20053;-88
2023/08/02 04:03:23;;;;;;;7.60;3.10;;;;;;;14.91;100.00;99674.06;4933057;29;20440;-88
2023/08/02 04:05:49;;;;;;;6.73;3.10;;;;;;;14.92;100.00;99664.06;4934015;29;20031;-88
2023/08/02 04:08:14;;;;;;;8.70;2.87;;;;;;;14.88;100.00;99655.03;4933247;29;20068;-88
2023/08/02 04:10:39;;;;;;;8.03;3.33;;;;;;;14.89;100.00;99643.09;4932690;29;20055;-89
2023/08/02 04:13:05;;;;;;;7.77;3.73;;;;;;;14.80;100.00;99629.63;4935522;29;20032;-88
2023/08/02 04:15:33;;;;;;;5.35;3.13;;;;;;;14.85;100.00;99640.25;4934998;29;20490;-88
2023/08/02 04:17:58;;;;;;;9.10;3.40;;;;;;;14.73;100.00;99615.81;4934113;29;20023;-91
2023/08/02 04:20:25;;;;;;;7.88;3.70;;;;;;;14.80;100.00;99625.03;4928030;29;20036;-89
2023/08/02 04:22:50;;;;;;;8.15;3.20;;;;;;;14.74;100.00;99618.19;4920448;29;20032;-89
2023/08/02 04:25:16;;;;;;;8.87;3.60;;;;;;;14.82;100.00;99627.41;4943990;29;20047;-89
2023/08/02 04:27:42;;;;;;;7.00;3.42;;;;;;;14.84;100.00;99614.41;4935511;29;20032;-88
2023/08/02 04:30:08;;;;;;;7.17;3.40;;;;;;;14.81;100.00;99599.66;4939871;29;20031;-87
2023/08/02 04:32:33;;;;;;;10.00;3.63;;;;;;;14.84;100.00;99590.13;4948418;29;20038;-88
2023/08/02 04:34:58;;;;;;;7.77;3.53;;;;;;;14.84;100.00;99582.03;4928829;29;20028;-88
2023/08/02 04:37:24;;;;;;;7.00;3.67;;;;;;;14.82;100.00;99581.56;4933196;29;20038;-88
2023/08/02 04:39:49;;;;;;;10.03;4.10;;;;;;;14.81;100.00;99571.88;4927291;29;20034;-88
2023/08/02 04:42:17;;;;;;;11.30;4.23;;;;;;;14.86;100.00;99571.72;4932561;29;20100;-88
2023/08/02 04:44:43;;;;;;;9.65;3.80;;;;;;;14.80;100.00;99552.22;4930632;29;20061;-88
2023/08/02 04:47:08;;;;;;;11.23;4.20;;;;;;;14.91;100.00;99568.06;4930053;29;20060;-89
2023/08/02 04:49:35;;;;;;;6.33;3.60;;;;;;;14.84;100.00;99536.19;4925865;29;20024;-92
2023/08/02 04:52:00;;;;;;;6.07;3.90;;;;;;;14.96;100.00;99530.16;4927175;29;20111;-89
2023/08/02 04:54:26;;;;;;;11.05;3.58;;;;;;;14.87;100.00;99505.13;4931643;29;20042;-84
2023/08/02 04:56:51;;;;;;;10.13;3.50;;;;;;;14.90;100.00;99507.97;4930806;29;20082;-85
2023/08/02 04:59:16;;;;;;;8.73;3.50;;;;;;;14.98;100.00;99523.34;4920952;29;20028;-84
2023/08/02 05:01:42;;;;;;;7.37;3.80;;;;;;;14.92;100.00;99503.06;4923978;29;20023;-85
2023/08/02 05:04:08;;;;;;;7.70;4.40;;;;;;;14.93;100.00;99507.34;4932982;29;20036;-84
2023/08/02 05:06:34;;;;;;;10.18;3.92;;;;;;;14.95;100.00;99494.31;4932907;29;20085;-84
2023/08/02 05:09:01;;;;;;;9.05;4.22;;;;;;;14.98;100.00;99507.16;4931249;29;20384;-85
2023/08/02 05:11:26;;;;;;;12.00;4.00;;;;;;;14.93;100.00;99510.03;4933151;29;20032;-84
2023/08/02 05:13:52;;;;;;;8.97;4.40;;;;;;;14.89;100.00;99492.91;4934141;29;20074;-83
2023/08/02 05:16:17;;;;;;;13.63;5.10;;;;;;;14.76;100.00;99480.38;4931632;29;20048;-83
2023/08/02 05:18:43;;;;;;;8.88;4.78;;;;;;;14.75;100.00;99497.66;4932154;29;20043;-84
2023/08/02 05:21:15;;;;;;;11.23;4.43;;;;;;;14.68;100.00;99490.84;4931751;29;20036;-84
2023/08/02 05:23:42;;;;;;;10.00;4.93;;;;;;;14.67;100.00;99485.75;4933505;29;20035;-85
2023/08/02 05:26:08;;;;;;;11.50;4.85;;;;;;;14.60;100.00;99470.06;4933026;29;20028;-86
2023/08/02 05:28:34;;;;;;;8.23;4.33;;;;;;;14.59;100.00;99464.97;4932428;29;21522;-85
2023/08/02 05:31:00;;;;;;;7.10;4.43;;;;;;;14.54;100.00;99455.94;4924363;29;20030;-85
2023/08/02 05:33:25;;;;;;;8.48;4.47;;;;;;;14.50;100.00;99449.59;4933391;29;20065;-85
2023/08/02 05:35:50;;;;;;;8.87;5.17;;;;;;;14.57;100.00;99446.44;4932491;29;20472;-85
2023/08/02 05:38:16;;;;;;;6.37;4.33;;;;;;;14.59;100.00;99429.94;4924216;29;20024;-85
2023/08/02 05:40:41;;;;;;;6.87;5.10;;;;;;;14.57;100.00;99415.97;4923706;29;20059;-87
2023/08/02 05:43:06;;;;;;;8.27;4.80;;;;;;;14.60;100.00;99416.16;4924306;29;20066;-86
2023/08/02 05:45:32;;;;;;;11.80;5.00;;;;;;;14.49;100.00;99404.91;4939931;29;20091;-86
2023/08/02 05:47:58;;;;;;;10.35;5.47;;;;;;;14.47;100.00;99400.94;4932796;29;20086;-87
2023/08/02 05:50:24;;;;;;;9.48;5.47;;;;;;;14.46;100.00;99393.94;4922916;29;20040;-86
2023/08/02 05:52:49;;;;;;;10.73;4.77;;;;;;;14.50;100.00;99401.09;4917512;29;20097;-87
2023/08/02 05:55:15;;;;;;;10.17;5.40;;;;;;;14.56;100.00;99392.81;4930364;29;20039;-87
2023/08/02 05:57:40;;;;;;;7.93;5.27;;;;;;;14.55;100.00;99389.34;4930552;29;20302;-86
2023/08/02 06:00:07;;;;;;;9.67;5.03;;;;;;;14.52;100.00;99382.69;4928154;29;20724;-86
2023/08/02 06:02:32;;;;;;;7.57;4.70;;;;;;;14.62;100.00;99370.00;4921066;29;20488;-86
2023/08/02 06:04:58;;;;;;;9.57;4.90;;;;;;;14.58;100.00;99361.75;4932482;29;20039;-86
2023/08/02 06:07:23;;;;;;;8.93;4.97;;;;;;;14.65;100.00;99355.88;4932870;29;20039;-85
2023/08/02 06:09:48;;;;;;;8.70;4.50;;;;;;;14.54;100.00;99331.94;4931076;29;20036;-86
2023/08/02 06:12:14;;;;;;;7.33;5.00;;;;;;;14.65;100.00;99337.78;4918396;29;20027;-86
2023/08/02 06:14:39;;;;;;;7.33;4.67;;;;;;;14.68;100.00;99329.09;4920099;29;20043;-86
2023/08/02 06:17:04;;;;;;;6.25;4.40;;;;;;;14.68;100.00;99325.63;4913675;29;20086;-86
2023/08/02 06:19:30;;;;;;;7.30;4.33;;;;;;;14.71;100.00;99318.78;4920976;29;20031;-86
2023/08/02 06:21:56;;;;;;;9.57;4.20;;;;;;;14.72;100.00;99310.34;4915382;29;20160;-86
2023/08/02 06:24:21;;;;;;;8.50;4.20;;;;;;;14.65;100.00;99296.56;4927502;29;20299;-86
2023/08/02 06:26:47;;;;;;;7.50;3.87;;;;;;;14.72;100.00;99298.78;4931990;29;20027;-86
2023/08/02 06:29:12;;;;;;;6.72;3.60;;;;;;;14.76;100.00;99295.13;4931670;29;20035;-86
2023/08/02 06:31:38;;;;;;;7.27;3.90;;;;;;;14.81;100.00;99286.06;4915025;29;20574;-85
2023/08/02 06:34:03;;;;;;;4.77;3.57;;;;;;;14.83;100.00;99273.84;4928299;29;20038;-85
2023/08/02 06:36:28;;;;;;;5.03;3.30;;;;;;;14.81;100.00;99272.59;4918247;29;20103;-86
2023/08/02 06:38:54;;;;;;;6.53;4.07;;;;;;;14.81;100.00;99265.28;4916114;29;20047;-86
2023/08/02 06:41:19;;;;;;;5.37;3.57;;;;;;;14.80;100.00;99260.22;4918132;29;20047;-85
2023/08/02 06:43:44;;;;;;;4.97;3.73;;;;;;;14.75;100.00;99236.94;4938076;29;20058;-86
2023/08/02 06:46:10;;;;;;;6.63;3.33;;;;;;;14.79;100.00;99239.78;4951434;28;20043;-85
2023/08/02 06:48:35;;;;;;;5.33;3.23;;;;;;;14.83;100.00;99246.09;4935533;28;20043;-86
2023/08/02 06:51:00;;;;;;;6.05;3.00;;;;;;;14.80;100.00;99225.16;4919697;29;20128;-86
2023/08/02 06:53:26;;;;;;;5.57;3.57;;;;;;;14.83;100.00;99216.44;4948844;28;20102;-86
2023/08/02 06:55:51;;;;;;;6.13;3.40;;;;;;;14.84;100.00;99221.50;4943844;28;20118;-86
2023/08/02 06:58:17;;;;;;;5.60;2.93;;;;;;;14.86;100.00;99207.69;4927583;29;20115;-88
2023/08/02 07:00:42;;;;;;;4.23;2.97;;;;;;;14.91;100.00;99206.69;4932082;29;20428;-86
2023/08/02 07:03:08;;;;;;;5.10;3.17;;;;;;;14.93;100.00;99186.41;4925142;29;20028;-85
2023/08/02 07:05:34;;;;;;;5.13;3.07;;;;;;;14.95;100.00;99184.16;4938011;29;20030;-85
2023/08/02 07:08:01;;;;;;;6.05;3.20;;;;;;;14.92;100.00;99176.72;4931748;29;20075;-85
2023/08/02 07:10:27;;;;;;;4.53;3.25;;;;;;;14.90;100.00;99165.47;4952044;28;20054;-86
2023/08/02 07:12:53;;;;;;;5.00;3.35;;;;;;;14.93;100.00;99170.22;4937502;28;21030;-86
2023/08/02 07:15:18;;;;;;;4.38;3.30;;;;;;;14.98;100.00;99166.53;4932672;29;20051;-86
2023/08/02 07:17:45;;;;;;;6.50;3.23;;;;;;;14.92;100.00;99165.13;4919058;29;20032;-85
2023/08/02 07:20:12;;;;;;;3.40;2.90;;;;;;;14.94;100.00;99152.94;4917153;29;20036;-87
2023/08/02 07:22:37;;;;;;;3.60;3.20;;;;;;;14.91;100.00;99161.66;4916310;29;20580;-86
2023/08/02 07:25:03;;;;;;;4.60;3.13;;;;;;;14.92;100.00;99154.34;4929197;29;20027;-85
2023/08/02 07:27:29;;;;;;;5.45;3.30;;;;;;;14.92;100.00;99148.97;4928307;29;20036;-85
2023/08/02 07:29:56;;;;;;;3.77;2.80;;;;;;;14.95;100.00;99146.41;4931912;29;20392;-87
2023/08/02 07:32:25;;;;;;;3.58;3.28;;;;;;;15.04;100.00;99148.25;4931577;29;20047;-88
2023/08/02 07:34:51;;;;;;;6.40;3.55;;;;;;;15.05;100.00;99150.63;4918212;29;20055;-86
2023/08/02 07:37:16;;;;;;;4.05;3.28;;;;;;;15.00;100.00;99131.94;4912966;29;20469;-86
2023/08/02 07:39:42;;;;;;;4.77;3.40;;;;;;;15.11;100.00;99148.53;4919663;29;20050;-85
2023/08/02 07:42:07;;;;;;;4.37;3.50;;;;;;;15.16;100.00;99134.81;4935218;29;20046;-86
2023/08/02 07:44:33;;;;;;;4.65;3.70;;;;;;;15.18;100.00;99124.47;4934504;29;20031;-86
2023/08/02 07:46:58;;;;;;;3.90;3.53;;;;;;;15.34;100.00;99118.50;4934583;29;20027;-86
2023/08/02 07:49:24;;;;;;;4.53;4.13;;;;;;;15.42;100.00;99114.91;4934002;29;21000;-86
2023/08/02 07:51:49;;;;;;;4.72;3.90;;;;;;;15.49;100.00;99101.69;4934652;29;20024;-86
2023/08/02 07:54:14;;;;;;;4.43;3.90;;;;;;;15.68;100.00;99113.88;4935697;29;20024;-86
2023/08/02 07:56:40;;;;;;;4.57;3.77;;;;;;;15.68;100.00;99086.88;4934532;29;20028;-86
2023/08/02 07:59:05;;;;;;;5.03;3.83;;;;;;;15.80;100.00;99092.31;4934959;29;20384;-86
2023/08/02 08:01:31;;;;;;;4.17;3.77;;;;;;;15.79;100.00;99079.16;4934273;29;20106;-86
2023/08/02 08:03:56;;;;;;;3.85;3.33;;;;;;;15.81;100.00;99091.19;4935352;29;20031;-86
2023/08/02 08:06:23;;;;;;;3.57;3.27;;;;;;;15.88;100.00;99083.34;4934638;29;20083;-86
2023/08/02 08:08:50;;;;;;;4.25;3.75;;;;;;;15.96;100.00;99081.66;4935113;29;20039;-86
2023/08/02 08:11:15;;;;;;;3.72;3.20;;;;;;;15.96;100.00;99083.56;4933629;29;20024;-86
2023/08/02 08:13:40;;;;;;;3.83;3.43;;;;;;;16.00;100.00;99081.78;4934835;29;20670;-86
2023/08/02 08:16:06;;;;;;;3.93;2.77;;;;;;;16.08;100.00;99077.38;4934568;29;20024;-86
2023/08/02 08:18:32;;;;;;;2.97;2.37;;;;;;;16.11;100.00;99069.38;4935185;29;20666;-86
2023/08/02 08:20:58;;;;;;;3.03;2.58;;;;;;;16.18;100.00;99068.81;4933547;29;20027;-86
2023/08/02 08:23:24;;;;;;;3.08;2.78;;;;;;;16.25;100.00;99068.28;4935180;29;20387;-86
2023/08/02 08:25:50;;;;;;;3.35;2.40;;;;;;;16.20;100.00;99071.97;4936336;29;20499;-86
2023/08/02 08:28:15;;;;;;;2.10;1.93;;;;;;;16.18;100.00;99058.81;4935123;29;20028;-86
2023/08/02 08:30:40;;;;;;;3.57;1.87;;;;;;;16.28;100.00;99046.75;4932675;29;20031;-86
2023/08/02 08:33:06;;;;;;;2.60;1.97;;;;;;;16.32;100.00;99050.38;4937093;29;20783;-86
2023/08/02 08:35:34;;;;;;;1.90;1.77;;;;;;;16.48;100.00;99053.13;4934781;29;20789;-86
2023/08/02 08:38:00;;;;;;;2.47;1.60;;;;;;;16.55;100.00;99060.66;4934590;29;20031;-86
2023/08/02 08:40:25;;;;;;;1.77;1.50;;;;;;;16.60;100.00;99062.38;4928741;29;20036;-86
2023/08/02 08:42:52;;;;;;;2.17;1.55;;;;;;;16.68;100.00;99064.13;4915361;29;20035;-86
2023/08/02 08:45:22;;;;;;;1.60;1.30;;;;;;;16.77;100.00;99061.31;4915415;29;20020;-86
2023/08/02 08:47:48;;;;;;;2.70;1.40;;;;;;;16.80;100.00;99050.56;4914652;29;20355;-86
2023/08/02 08:50:15;;;;;;;2.25;1.45;;;;;;;16.92;100.00;99049.75;4921662;29;20036;-86
2023/08/02 08:52:41;;;;;;;2.13;1.58;;;;;;;16.98;100.00;99050.31;4934661;29;20046;-86
2023/08/02 08:55:11;;;;;;;1.83;1.50;;;;;;;17.15;100.00;99048.47;4934074;29;20793;-86
2023/08/02 08:57:36;;;;;;;1.85;1.60;;;;;;;17.36;100.00;99043.59;4934069;29;20031;-86
2023/08/02 09:00:05;;;;;;;1.90;1.70;;;;;;;17.51;100.00;99042.06;4932936;29;20152;-86
2023/08/02 09:02:32;;;;;;;1.70;1.60;;;;;;;17.58;100.00;99043.38;4934676;29;20551;-85
2023/08/02 09:05:00;;;;;;;2.22;1.50;;;;;;;17.69;100.00;99034.41;4933640;29;20039;-86
2023/08/02 09:07:25;;;;;;;1.80;1.60;;;;;;;17.87;100.00;99039.47;4933980;29;20031;-86
2023/08/02 09:09:51;;;;;;;2.33;1.90;;;;;;;18.04;100.00;99016.63;4931828;29;20499;-86
2023/08/02 09:12:16;;;;;;;4.30;1.80;;;;;;;18.27;100.00;99034.97;4931647;29;20033;-86
2023/08/02 09:15:02;;;;;;;2.13;1.80;;;;;;;18.39;100.00;99024.00;4933622;29;20403;-86
2023/08/02 09:17:45;;;;;;;1.90;1.80;;;;;;;18.43;100.00;99019.44;4933549;29;20035;-86
2023/08/02 09:20:10;;;;;;;1.98;1.88;;;;;;;18.66;100.00;99007.91;4930790;29;20078;-86
2023/08/02 09:22:36;;;;;;;2.17;2.03;;;;;;;18.74;100.00;99009.59;4933660;29;20420;-87
2023/08/02 09:25:07;;;;;;;2.60;1.90;;;;;;;18.99;100.00;99009.34;4933630;29;20038;-86
2023/08/02 09:27:32;;;;;;;2.15;2.03;;;;;;;19.03;100.00;99001.25;4934013;29;20205;-86
2023/08/02 09:29:58;;;;;;;2.30;2.20;;;;;;;19.09;100.00;98991.69;4931889;29;20111;-86
2023/08/02 09:32:24;;;;;;;2.03;1.93;;;;;;;19.13;100.00;98992.53;4933863;29;20399;-87
2023/08/02 09:34:56;;;;;;;3.83;2.28;;;;;;;19.51;100.00;98992.78;4917551;29;20545;-86
2023/08/02 09:37:36;;;;;;;2.50;2.30;;;;;;;19.90;100.00;98989.94;4915151;29;20060;-86
2023/08/02 09:40:09;;;;;;;4.60;2.10;;;;;;;20.03;100.00;98997.88;4917091;29;20115;-87
2023/08/02 09:42:34;;;;;;;3.27;2.00;;;;;;;19.90;100.00;98989.16;4933921;29;20775;-87
2023/08/02 09:45:03;;;;;;;1.58;1.48;;;;;;;19.66;100.00;98977.50;4931983;29;20058;-87
2023/08/02 09:47:29;;;;;;;2.00;1.50;;;;;;;19.65;100.00;98984.09;4933656;29;20036;-87
2023/08/02 09:50:03;;;;;;;1.70;1.50;;;;;;;19.67;100.00;98984.50;4932948;29;20027;-87
2023/08/02 09:52:28;;;;;;;1.70;1.60;;;;;;;19.70;100.00;98981.06;4935005;29;20276;-86
2023/08/02 09:54:54;;;;;;;1.63;1.30;;;;;;;19.96;100.00;98974.09;4933547;29;20387;-88
2023/08/02 09:57:24;;;;;;;1.90;1.80;;;;;;;20.51;100.00;98973.66;4933294;29;20026;-87
2023/08/02 09:59:52;;;;;;;1.42;1.33;;;;;;;20.88;100.00;98964.78;4933062;29;20091;-87
2023/08/02 10:02:25;;;;;;;2.35;1.40;;;;;;;21.29;100.00;98969.44;4914265;29;20032;-87
2023/08/02 10:04:58;;;;;;;1.58;1.48;;;;;;;21.43;100.00;98970.72;4916175;29;20437;-88
2023/08/02 10:07:39;;;;;;;1.85;1.15;;;;;;;21.21;100.00;98973.25;4933240;29;20130;-87
2023/08/02 10:10:14;;;;;;;1.17;1.13;;;;;;;20.74;100.00;98967.28;4932141;29;20521;-87
2023/08/02 10:12:40;;;;;;;1.67;1.17;;;;;;;20.18;100.00;98980.59;4933008;29;20035;-86
2023/08/02 10:15:06;;;;;;;1.70;1.17;;;;;;;19.94;100.00;98965.50;4932339;29;20083;-87
2023/08/02 10:17:32;;;;;;;1.42;1.20;;;;;;;20.18;100.00;98955.34;4932770;29;20024;-87
2023/08/02 10:20:03;;;;;;;1.77;1.45;;;;;;;20.82;100.00;98944.47;4931920;29;20023;-87
2023/08/02 10:22:29;;;;;;;3.03;1.30;;;;;;;21.37;100.00;98940.31;4933347;29;20070;-87
2023/08/02 10:24:56;;;;;;;1.48;1.33;;;;;;;21.71;100.00;98926.56;4932070;29;20508;-88
2023/08/02 10:27:23;;;;;;;2.55;1.05;;;;;;;22.02;100.00;98934.53;4932195;29;20032;-87
2023/08/02 10:29:49;;;;;;;1.67;1.10;;;;;;;22.33;100.00;98929.59;4933009;29;20020;-87
2023/08/02 10:32:17;;;;;;;1.50;1.40;;;;;;;22.30;100.00;98922.19;4932538;29;20465;-87
2023/08/02 10:34:48;;;;;;;1.33;1.10;;;;;;;22.09;100.00;98923.69;4932139;29;20019;-87
2023/08/02 10:37:14;;;;;;;1.10;1.10;;;;;;;21.99;100.00;98919.72;4913846;29;20036;-87
2023/08/02 10:40:00;;;;;;;1.15;1.02;;;;;;;21.87;100.00;98923.56;4913760;29;20433;-87
2023/08/02 10:42:29;;;;;;;1.40;1.30;;;;;;;21.61;100.00;98914.44;4932163;29;20631;-86
2023/08/02 10:44:54;;;;;;;1.20;1.13;;;;;;;21.50;100.00;98913.56;4931480;29;20020;-86
2023/08/02 10:47:31;;;;;;;1.40;1.30;;;;;;;21.48;100.00;98894.09;4932507;29;20040;-87
2023/08/02 10:49:57;;;;;;;2.58;1.17;;;;;;;21.54;100.00;98905.41;4931856;28;20471;-87
2023/08/02 10:52:28;;;;;;;1.30;1.20;;;;;;;21.27;100.00;98892.75;4933148;29;20103;-87
2023/08/02 10:55:03;;;;;;;3.33;1.10;;;;;;;21.05;100.00;98910.06;4932043;29;20740;-86
2023/08/02 10:57:28;;;;;;;1.40;1.17;;;;;;;20.61;100.00;98908.84;4931955;29;20043;-87
2023/08/02 10:59:54;;;;;;;3.50;1.67;;;;;;;20.13;100.00;98880.34;4931449;29;20827;-87
2023/08/02 11:02:19;;;;;;;1.70;1.60;;;;;;;19.78;100.00;98868.59;4931411;29;20075;-86
2023/08/02 11:04:47;;;;;;;1.87;1.77;;;;;;;19.60;100.00;98867.56;4932205;29;20377;-85
2023/08/02 11:07:14;;;;;;;2.38;1.88;;;;;;;19.82;100.00;98845.00;4935598;29;20032;-88
2023/08/02 11:09:40;;;;;;;4.10;1.42;;;;;;;19.88;100.00;98867.22;4934193;29;20028;-88
2023/08/02 11:12:13;;;;;;;2.88;1.50;;;;;;;19.77;100.00;98861.59;4931989;29;20369;-88
2023/08/02 11:14:40;;;;;;;3.03;1.73;;;;;;;19.59;100.00;98866.81;4936841;29;20036;-87
2023/08/02 11:17:05;;;;;;;2.00;1.80;;;;;;;19.63;100.00;98883.91;4935361;29;20058;-87
2023/08/02 11:19:31;;;;;;;8.38;1.90;;;;;;;19.63;100.00;98870.34;4937095;29;20483;-88
2023/08/02 11:21:59;;;;;;;38.20;3.17;;;;;;;19.69;100.00;98843.66;4933974;29;20028;-88